Juan_de_la_cosa — ECJE — position and weather

sailwx.info

Track history (hours):
 
Tides and Currents Weather Stations Pressure Air Temp Water Temp Dewpoint Dewpoint Depression Visibility Wind Speed Wind Dir Waves Ship Positions

Juan_de_la_cosa

Last reported at 2017-Aug-18 19:24 UTC. Time now 2017-Aug-18 22:10 UTC.
Position N 43°59' W 005°48'.

Length 75 m; draft 4.5 m.

Type: SAR. MMSI: 224612000.

Date/timePositionNaut miles runAvg speedWind from/ knotsBaromVisibWave heightAir tempDewpointWater temp
2017-Aug-18 19:24N 43°59' W 005°48'2 5.8
2017-Aug-18 19:00N 44°00' W 005°45'26 1.8
2017-Aug-18 04:30N 43°54' W 006°20'  
2017-Aug-15 08:08N 46°01' W 004°14'3 5.2
2017-Aug-15 07:28N 45°59' W 004°10'1 2.0
2017-Aug-15 06:53N 46°00' W 004°11'3 5.8
2017-Aug-15 06:24N 46°02' W 004°14'3 5.9
2017-Aug-15 05:55N 46°02' W 004°18'3 5.1
2017-Aug-15 05:26N 46°02' W 004°22'3 5.3
2017-Aug-15 04:57N 46°01' W 004°25'2 4.9
2017-Aug-15 04:30N 45°60' W 004°27'12 4.3
2017-Aug-15 01:42N 46°03' W 004°11'1 5.7
2017-Aug-15 01:29N 46°03' W 004°09'3 5.4
2017-Aug-15 01:00N 46°02' W 004°06'3 5.2
2017-Aug-15 00:30N 46°00' W 004°03'2 5.0
2017-Aug-15 00:00N 45°59' W 003°60'3 4.7
2017-Aug-14 23:27N 45°57' W 003°57'4 0.4
2017-Aug-14 12:32N 45°54' W 004°01'0 5.0
2017-Aug-14 12:30N 45°54' W 004°02'2 4.8
2017-Aug-14 11:59N 45°53' W 004°05'  
2017-Aug-11 14:00N 46°07' W 004°31'51 6.9
2017-Aug-11 06:39N 46°43' W 005°22'5 0.3
2017-Aug-10 16:40N 46°38' W 005°21'  
Track history (hours):
 
Tides and Currents Weather Stations Pressure Air Temp Water Temp Dewpoint Dewpoint Depression Visibility Wind Speed Wind Dir Waves Ship Positions

Juan_de_la_cosa

Last reported at 2017-Aug-18 19:24 UTC. Time now 2017-Aug-18 22:10 UTC.
Position N 43°59' W 005°48'.

Length 75 m; draft 4.5 m.

Type: SAR. MMSI: 224612000.

Date/timePositionNaut miles runAvg speedWind from/ knotsBaromVisibWave heightAir tempDewpointWater temp
2017-Aug-18 19:24N 43°59' W 005°48'2 5.8
2017-Aug-18 19:00N 44°00' W 005°45'26 1.8
2017-Aug-18 04:30N 43°54' W 006°20'  
2017-Aug-15 08:08N 46°01' W 004°14'3 5.2
2017-Aug-15 07:28N 45°59' W 004°10'1 2.0
2017-Aug-15 06:53N 46°00' W 004°11'3 5.8
2017-Aug-15 06:24N 46°02' W 004°14'3 5.9
2017-Aug-15 05:55N 46°02' W 004°18'3 5.1
2017-Aug-15 05:26N 46°02' W 004°22'3 5.3
2017-Aug-15 04:57N 46°01' W 004°25'2 4.9
2017-Aug-15 04:30N 45°60' W 004°27'12 4.3
2017-Aug-15 01:42N 46°03' W 004°11'1 5.7
2017-Aug-15 01:29N 46°03' W 004°09'3 5.4
2017-Aug-15 01:00N 46°02' W 004°06'3 5.2
2017-Aug-15 00:30N 46°00' W 004°03'2 5.0
2017-Aug-15 00:00N 45°59' W 003°60'3 4.7
2017-Aug-14 23:27N 45°57' W 003°57'4 0.4
2017-Aug-14 12:32N 45°54' W 004°01'0 5.0
2017-Aug-14 12:30N 45°54' W 004°02'2 4.8
2017-Aug-14 11:59N 45°53' W 004°05'  
2017-Aug-11 14:00N 46°07' W 004°31'51 6.9
2017-Aug-11 06:39N 46°43' W 005°22'5 0.3
2017-Aug-10 16:40N 46°38' W 005°21'  

Dump ship's entire track history